createdAt,value
2023-01-31T00:01:12.696Z,3.47
2023-01-31T00:03:40.729Z,4.03
2023-01-31T00:06:13.109Z,3.70
2023-01-31T00:08:41.281Z,3.90
2023-01-31T00:11:09.056Z,3.03
2023-01-31T00:13:39.291Z,3.50
2023-01-31T00:16:07.729Z,3.80
2023-01-31T00:18:36.044Z,4.00
2023-01-31T00:21:07.975Z,4.03
2023-01-31T00:23:36.111Z,3.70
2023-01-31T00:26:11.222Z,3.70
2023-01-31T00:28:41.039Z,3.27
2023-01-31T00:31:09.350Z,3.93
2023-01-31T00:33:38.709Z,4.03
2023-01-31T00:36:07.161Z,3.63
2023-01-31T00:38:35.119Z,3.97
2023-01-31T00:41:03.919Z,2.27
2023-01-31T00:43:34.791Z,2.60
2023-01-31T00:46:04.934Z,4.00
2023-01-31T00:48:33.213Z,3.67
2023-01-31T00:51:01.202Z,3.30
2023-01-31T00:53:29.373Z,2.43
2023-01-31T00:56:03.033Z,2.70
2023-01-31T00:58:30.804Z,3.10
2023-01-31T01:01:06.084Z,4.20
2023-01-31T01:03:35.735Z,3.67
2023-01-31T01:06:03.792Z,3.00
2023-01-31T01:08:32.590Z,3.03
2023-01-31T01:11:05.172Z,5.37
2023-01-31T01:13:33.009Z,3.43
2023-01-31T01:16:04.862Z,4.10
2023-01-31T01:18:35.156Z,3.30
2023-01-31T01:21:07.611Z,3.47
2023-01-31T01:23:37.080Z,2.73
2023-01-31T01:26:05.216Z,3.30
2023-01-31T01:28:34.373Z,3.47
2023-01-31T01:31:05.722Z,3.93
2023-01-31T01:33:33.938Z,3.77
2023-01-31T01:36:02.203Z,2.50
2023-01-31T01:38:31.388Z,3.20
2023-01-31T01:40:59.387Z,3.70
2023-01-31T01:43:40.749Z,3.60
2023-01-31T01:46:10.093Z,4.07
2023-01-31T01:48:38.558Z,2.57
2023-01-31T01:51:07.933Z,3.40
2023-01-31T01:53:40.653Z,3.53
2023-01-31T01:56:09.959Z,3.83
2023-01-31T01:58:40.017Z,3.00
2023-01-31T02:01:08.667Z,3.03
2023-01-31T02:03:36.826Z,3.33
2023-01-31T02:06:06.513Z,3.53
2023-01-31T02:08:36.109Z,5.77
2023-01-31T02:11:09.211Z,3.23
2023-01-31T02:13:39.587Z,3.07
2023-01-31T02:16:07.524Z,3.23
2023-01-31T02:18:35.563Z,3.43
2023-01-31T02:21:35.770Z,2.60
2023-01-31T02:24:22.317Z,5.80
2023-01-31T02:27:11.064Z,2.70
2023-01-31T02:29:50.329Z,3.10
2023-01-31T02:32:42.346Z,2.80
2023-01-31T02:35:13.996Z,3.37
2023-01-31T02:37:45.188Z,3.23
2023-01-31T02:40:18.542Z,2.67
2023-01-31T02:42:52.471Z,2.80
2023-01-31T02:45:23.127Z,3.10
2023-01-31T02:48:01.093Z,3.50
2023-01-31T02:50:31.971Z,2.93
2023-01-31T02:53:04.482Z,6.10
2023-01-31T02:55:54.707Z,3.30
2023-01-31T02:58:28.241Z,2.43
2023-01-31T03:00:57.444Z,4.17
2023-01-31T03:03:28.999Z,6.73
2023-01-31T03:06:23.239Z,2.80
2023-01-31T03:08:53.265Z,2.50
2023-01-31T03:11:22.528Z,3.20
2023-01-31T03:13:56.783Z,4.33
2023-01-31T03:16:46.179Z,3.30
2023-01-31T03:19:17.560Z,3.90
2023-01-31T03:21:47.173Z,3.50
2023-01-31T03:24:16.031Z,4.47
2023-01-31T03:26:44.481Z,2.87
2023-01-31T03:29:15.450Z,2.63
2023-01-31T03:31:48.426Z,2.63
2023-01-31T03:34:18.424Z,2.50
2023-01-31T03:36:54.382Z,3.23
2023-01-31T03:40:03.749Z,3.23
2023-01-31T03:42:39.266Z,4.87
2023-01-31T03:45:10.476Z,3.40
2023-01-31T03:47:40.192Z,3.97
2023-01-31T03:50:12.142Z,2.43
2023-01-31T03:52:42.321Z,4.10
2023-01-31T03:55:14.791Z,4.20
2023-01-31T03:57:43.406Z,2.87
2023-01-31T04:00:14.149Z,2.67
2023-01-31T04:02:54.015Z,2.87
2023-01-31T04:05:24.905Z,2.67
2023-01-31T04:07:56.246Z,2.93
2023-01-31T04:10:26.413Z,3.83
2023-01-31T04:12:54.496Z,2.30
2023-01-31T04:15:22.651Z,3.60
2023-01-31T04:17:50.599Z,2.67
2023-01-31T04:20:18.280Z,3.47
2023-01-31T04:22:47.955Z,3.33
2023-01-31T04:25:15.642Z,3.20
2023-01-31T04:27:43.498Z,4.17
2023-01-31T04:30:11.973Z,2.70
2023-01-31T04:32:39.664Z,3.07
2023-01-31T04:35:07.511Z,2.67
2023-01-31T04:37:35.751Z,2.73
2023-01-31T04:40:05.249Z,3.33
2023-01-31T04:42:33.320Z,3.10
2023-01-31T04:45:01.293Z,4.43
2023-01-31T04:47:29.006Z,3.40
2023-01-31T04:49:56.639Z,4.07
2023-01-31T04:52:25.084Z,3.60
2023-01-31T04:54:52.751Z,4.50
2023-01-31T04:57:22.015Z,4.17
2023-01-31T04:59:50.402Z,3.23
2023-01-31T05:02:18.684Z,3.37
2023-01-31T05:04:47.100Z,3.00
2023-01-31T05:07:15.096Z,5.43
2023-01-31T05:09:43.974Z,2.47
2023-01-31T05:12:11.640Z,2.83
2023-01-31T05:14:40.976Z,3.10
2023-01-31T05:17:09.674Z,4.00
2023-01-31T05:19:37.289Z,3.27
2023-01-31T05:22:05.414Z,2.47
2023-01-31T05:24:33.662Z,2.30
2023-01-31T05:27:02.383Z,2.90
2023-01-31T05:29:31.059Z,2.50
2023-01-31T05:32:00.813Z,3.60
2023-01-31T05:34:31.139Z,3.10
2023-01-31T05:36:58.906Z,2.53
2023-01-31T05:39:28.832Z,2.40
2023-01-31T05:41:56.935Z,4.27
2023-01-31T05:44:24.726Z,2.80
2023-01-31T05:46:52.475Z,3.77
2023-01-31T05:49:21.435Z,2.50
2023-01-31T05:51:49.310Z,3.30
2023-01-31T05:54:16.946Z,3.07
2023-01-31T05:56:44.783Z,4.00
2023-01-31T05:59:12.624Z,3.10
2023-01-31T06:01:40.286Z,4.50
2023-01-31T06:04:07.919Z,2.73
2023-01-31T06:06:37.061Z,3.23
2023-01-31T06:09:04.923Z,2.87
2023-01-31T06:11:33.197Z,3.03
2023-01-31T06:14:01.255Z,3.03
2023-01-31T06:16:31.176Z,2.77
2023-01-31T06:18:59.079Z,2.80
2023-01-31T06:21:26.862Z,2.50
2023-01-31T06:23:55.939Z,4.33
2023-01-31T06:26:23.757Z,3.57
2023-01-31T06:28:51.377Z,3.70
2023-01-31T06:31:19.498Z,2.80
2023-01-31T06:33:48.208Z,3.43
2023-01-31T06:36:18.696Z,3.23
2023-01-31T06:38:49.734Z,2.90
2023-01-31T06:41:19.449Z,3.07
2023-01-31T06:43:47.155Z,3.43
2023-01-31T06:46:15.108Z,3.87
2023-01-31T06:48:43.681Z,3.07
2023-01-31T06:51:11.438Z,3.70
2023-01-31T06:53:39.079Z,2.80
2023-01-31T06:56:07.693Z,3.80
2023-01-31T06:58:37.073Z,3.20
2023-01-31T07:01:05.685Z,3.23
2023-01-31T07:03:33.428Z,2.77
2023-01-31T07:06:01.375Z,2.53
2023-01-31T07:08:29.288Z,2.57
2023-01-31T07:10:57.102Z,3.20
2023-01-31T07:13:24.793Z,3.00
2023-01-31T07:15:53.846Z,2.90
2023-01-31T07:18:21.696Z,2.70
2023-01-31T07:20:49.379Z,2.70
2023-01-31T07:23:17.271Z,2.93
2023-01-31T07:25:44.946Z,3.60
2023-01-31T07:28:12.943Z,3.90
2023-01-31T07:30:43.883Z,3.77
2023-01-31T07:33:13.158Z,3.30
2023-01-31T07:35:42.589Z,2.40
2023-01-31T07:38:11.478Z,2.80
2023-01-31T07:40:40.182Z,2.77
2023-01-31T07:43:08.312Z,2.57
2023-01-31T07:45:36.297Z,4.00
2023-01-31T07:48:04.219Z,3.40
2023-01-31T07:50:33.332Z,3.67
2023-01-31T07:53:01.417Z,3.00
2023-01-31T07:55:29.794Z,3.40
2023-01-31T07:57:57.728Z,2.73
2023-01-31T08:00:42.998Z,3.20
2023-01-31T08:03:36.390Z,3.50
2023-01-31T08:06:08.574Z,2.47
2023-01-31T08:08:36.615Z,3.23
2023-01-31T08:11:05.493Z,2.30
2023-01-31T08:13:33.762Z,3.17
2023-01-31T08:16:01.820Z,3.70
2023-01-31T08:18:29.477Z,2.93
2023-01-31T08:20:57.679Z,3.60
2023-01-31T08:23:27.526Z,3.93
2023-01-31T08:26:00.412Z,2.70
2023-01-31T08:28:28.196Z,2.77
2023-01-31T08:31:07.688Z,2.20
2023-01-31T08:33:37.630Z,2.33
2023-01-31T08:36:12.257Z,4.70
2023-01-31T08:38:42.085Z,4.50
2023-01-31T08:41:09.799Z,2.97
2023-01-31T08:43:53.753Z,2.77
2023-01-31T08:46:23.641Z,3.07
2023-01-31T08:48:51.389Z,4.57
2023-01-31T08:51:19.046Z,3.27
2023-01-31T08:53:48.326Z,3.50
2023-01-31T08:56:16.688Z,3.33
2023-01-31T08:58:45.160Z,2.93
2023-01-31T09:01:14.002Z,3.23
2023-01-31T09:03:44.922Z,2.97
2023-01-31T09:06:13.971Z,2.77
2023-01-31T09:08:41.619Z,3.30
2023-01-31T09:11:10.645Z,3.30
2023-01-31T09:13:38.390Z,3.00
2023-01-31T09:16:10.354Z,3.30
2023-01-31T09:18:39.054Z,2.70
2023-01-31T09:21:07.988Z,4.90
2023-01-31T09:23:35.849Z,10.77
2023-01-31T09:26:03.853Z,5.17
2023-01-31T09:28:33.256Z,3.33
2023-01-31T09:31:03.632Z,7.80
2023-01-31T09:33:32.176Z,3.40
2023-01-31T09:36:00.941Z,3.50
2023-01-31T09:38:28.753Z,3.20
2023-01-31T09:40:57.207Z,3.40
2023-01-31T09:43:26.884Z,3.27
2023-01-31T09:45:57.547Z,2.83
2023-01-31T09:48:27.522Z,3.17
2023-01-31T09:50:57.237Z,4.33
2023-01-31T09:53:31.511Z,3.30
2023-01-31T09:56:06.148Z,3.87
2023-01-31T09:58:36.984Z,3.50
2023-01-31T10:01:10.371Z,4.10
2023-01-31T10:03:52.806Z,3.10
2023-01-31T10:06:23.666Z,3.30
2023-01-31T10:08:54.163Z,3.83
2023-01-31T10:11:29.388Z,3.77
2023-01-31T10:13:58.491Z,3.40
2023-01-31T10:16:29.245Z,4.20
2023-01-31T10:19:00.623Z,2.93
2023-01-31T10:21:31.574Z,4.17
2023-01-31T10:24:00.863Z,3.70
2023-01-31T10:26:30.477Z,3.87
2023-01-31T10:29:01.291Z,3.63
2023-01-31T10:31:33.464Z,3.50
2023-01-31T10:34:04.233Z,3.13
2023-01-31T10:36:34.463Z,3.17
2023-01-31T10:39:05.285Z,3.50
2023-01-31T10:41:39.728Z,3.93
2023-01-31T10:44:09.480Z,3.90
2023-01-31T10:46:38.779Z,4.53
2023-01-31T10:49:06.415Z,4.10
2023-01-31T10:51:42.147Z,3.03
2023-01-31T10:54:15.704Z,3.30
2023-01-31T10:56:44.336Z,3.70
2023-01-31T10:59:13.952Z,3.83
2023-01-31T11:01:42.913Z,3.80
2023-01-31T11:04:22.961Z,3.70
2023-01-31T11:06:50.692Z,2.93
2023-01-31T11:09:18.434Z,3.80
2023-01-31T11:11:54.323Z,3.80
2023-01-31T11:14:22.196Z,4.00
2023-01-31T11:16:57.104Z,4.23
2023-01-31T11:19:27.593Z,3.90
2023-01-31T11:21:55.650Z,4.50
2023-01-31T11:24:24.293Z,3.50
2023-01-31T11:26:53.994Z,3.97
2023-01-31T11:29:23.809Z,4.40
2023-01-31T11:31:53.614Z,4.53
2023-01-31T11:34:23.365Z,4.60
2023-01-31T11:36:51.800Z,5.40
2023-01-31T11:39:25.248Z,5.30
2023-01-31T11:41:52.935Z,7.20
2023-01-31T11:44:21.220Z,6.43
2023-01-31T11:46:51.802Z,7.50
2023-01-31T11:49:23.704Z,6.47
2023-01-31T11:51:52.189Z,6.70
2023-01-31T11:54:21.537Z,6.07
2023-01-31T11:56:49.539Z,6.97
2023-01-31T11:59:19.582Z,6.40
2023-01-31T12:01:50.174Z,6.13
2023-01-31T12:04:19.792Z,6.43
2023-01-31T12:06:58.048Z,5.97
2023-01-31T12:09:27.558Z,7.23
2023-01-31T12:11:56.212Z,6.27
2023-01-31T12:14:25.071Z,6.90
2023-01-31T12:16:55.677Z,6.83
2023-01-31T12:19:30.724Z,6.67
2023-01-31T12:22:03.912Z,6.27
2023-01-31T12:24:37.120Z,6.57
2023-01-31T12:27:08.910Z,6.00
2023-01-31T12:29:45.817Z,7.07
2023-01-31T12:32:23.035Z,6.07
2023-01-31T12:35:09.498Z,5.73
2023-01-31T12:37:44.559Z,6.37
2023-01-31T12:40:24.660Z,6.27
2023-01-31T12:42:58.173Z,6.93
2023-01-31T12:45:43.959Z,7.80
2023-01-31T12:48:18.800Z,7.10
2023-01-31T12:50:48.779Z,7.10
2023-01-31T12:53:23.174Z,8.30
2023-01-31T12:55:57.971Z,7.47
2023-01-31T12:58:36.857Z,8.37
2023-01-31T13:01:05.753Z,8.63
2023-01-31T13:03:39.229Z,8.87
2023-01-31T13:06:08.180Z,8.63
2023-01-31T13:08:41.072Z,8.17
2023-01-31T13:11:10.936Z,8.53
2023-01-31T13:13:41.339Z,9.30
2023-01-31T13:16:13.494Z,10.07
2023-01-31T13:18:42.656Z,9.13
2023-01-31T13:21:12.172Z,8.63
2023-01-31T13:24:06.018Z,8.83
2023-01-31T13:26:34.820Z,9.70
2023-01-31T13:29:04.773Z,9.33
2023-01-31T13:31:35.159Z,9.10
2023-01-31T13:34:07.172Z,9.43
2023-01-31T13:36:38.485Z,9.80
2023-01-31T13:39:09.978Z,10.10
2023-01-31T13:41:39.621Z,9.47
2023-01-31T13:44:08.067Z,9.23
2023-01-31T13:46:42.124Z,9.70
2023-01-31T13:49:16.052Z,8.87
2023-01-31T13:51:46.815Z,8.70
2023-01-31T13:54:18.904Z,8.30
2023-01-31T13:56:50.523Z,8.77
2023-01-31T13:59:22.051Z,7.93
2023-01-31T14:01:51.344Z,7.50
2023-01-31T14:04:27.355Z,7.63
2023-01-31T14:06:56.117Z,7.70
2023-01-31T14:09:26.391Z,7.77
2023-01-31T14:11:56.170Z,7.10
2023-01-31T14:14:39.291Z,7.13
2023-01-31T14:17:10.922Z,6.37
2023-01-31T14:19:55.135Z,7.00
2023-01-31T14:22:23.710Z,7.40
2023-01-31T14:25:04.181Z,7.67
2023-01-31T14:27:34.886Z,6.40
2023-01-31T14:30:10.432Z,7.10
2023-01-31T14:32:40.406Z,6.43
2023-01-31T14:35:25.544Z,6.60
2023-01-31T14:37:56.873Z,6.10
2023-01-31T14:40:27.304Z,6.10
2023-01-31T14:43:18.955Z,7.13
2023-01-31T14:46:01.032Z,6.70
2023-01-31T14:48:39.630Z,6.70
2023-01-31T14:51:14.356Z,7.20
2023-01-31T14:53:58.572Z,7.80
2023-01-31T14:56:34.873Z,7.80
2023-01-31T14:59:03.174Z,7.33
2023-01-31T15:01:34.941Z,7.73
2023-01-31T15:04:03.687Z,7.53
2023-01-31T15:06:33.700Z,7.43
2023-01-31T15:09:29.090Z,7.17
2023-01-31T15:11:57.700Z,7.73
2023-01-31T15:14:37.760Z,7.97
2023-01-31T15:17:27.270Z,6.77
2023-01-31T15:20:06.630Z,7.97
2023-01-31T15:22:35.128Z,8.60
2023-01-31T15:25:06.725Z,8.87
2023-01-31T15:27:38.573Z,10.07
2023-01-31T15:30:09.280Z,10.03
2023-01-31T15:32:41.079Z,10.37
2023-01-31T15:35:15.328Z,10.27
2023-01-31T15:37:43.369Z,9.87
2023-01-31T15:40:20.175Z,10.10
2023-01-31T15:42:48.015Z,10.57
2023-01-31T15:45:21.227Z,11.03
2023-01-31T15:47:57.228Z,11.10
2023-01-31T15:50:26.149Z,10.03
2023-01-31T15:52:55.511Z,10.80
2023-01-31T15:55:23.608Z,11.03
2023-01-31T15:57:55.308Z,11.07
2023-01-31T16:00:24.046Z,10.97
2023-01-31T16:03:00.465Z,11.63
2023-01-31T16:05:32.431Z,11.07
2023-01-31T16:08:01.662Z,11.83
2023-01-31T16:10:30.669Z,11.90
2023-01-31T16:12:59.626Z,11.40
2023-01-31T16:15:28.677Z,10.90
2023-01-31T16:17:58.148Z,11.80
2023-01-31T16:20:44.198Z,12.80
2023-01-31T16:23:27.504Z,12.77
2023-01-31T16:25:58.327Z,12.77
2023-01-31T16:28:26.240Z,12.60
2023-01-31T16:30:54.318Z,13.50
2023-01-31T16:33:23.322Z,14.10
2023-01-31T16:36:12.889Z,14.20
2023-01-31T16:38:44.185Z,14.37
2023-01-31T16:41:12.916Z,14.63
2023-01-31T16:43:41.665Z,14.30
2023-01-31T16:46:20.284Z,14.70
2023-01-31T16:49:02.049Z,15.63
2023-01-31T16:51:42.868Z,14.70
2023-01-31T16:54:17.590Z,14.30
2023-01-31T16:56:45.738Z,14.83
2023-01-31T16:59:32.140Z,14.83
2023-01-31T17:02:02.956Z,14.20
2023-01-31T17:04:31.062Z,14.53
2023-01-31T17:07:03.696Z,14.80
2023-01-31T17:09:35.354Z,15.20
2023-01-31T17:12:04.690Z,14.40
2023-01-31T17:14:34.272Z,13.77
2023-01-31T17:17:12.698Z,15.00
2023-01-31T17:19:44.192Z,16.03
2023-01-31T17:22:14.966Z,13.90
2023-01-31T17:24:44.902Z,14.10
2023-01-31T17:27:14.150Z,13.63
2023-01-31T17:29:42.062Z,14.47
2023-01-31T17:32:11.837Z,14.10
2023-01-31T17:34:39.569Z,14.73
2023-01-31T17:37:07.453Z,15.00
2023-01-31T17:39:35.910Z,14.53
2023-01-31T17:42:05.259Z,14.03
2023-01-31T17:44:33.263Z,14.43
2023-01-31T17:47:00.949Z,14.97
2023-01-31T17:49:29.454Z,15.30
2023-01-31T17:51:58.834Z,14.13
2023-01-31T17:54:26.671Z,16.53
2023-01-31T17:56:54.486Z,15.10
2023-01-31T17:59:45.317Z,15.97
2023-01-31T18:02:13.008Z,16.33
2023-01-31T18:04:40.787Z,15.37
2023-01-31T18:07:08.489Z,14.73
2023-01-31T18:09:36.205Z,13.40
2023-01-31T18:12:04.455Z,14.53
2023-01-31T18:17:44.706Z,14.27
2023-01-31T18:20:13.514Z,13.50
2023-01-31T18:22:41.475Z,13.90
2023-01-31T18:25:09.496Z,12.63
2023-01-31T18:27:37.304Z,13.07
2023-01-31T18:30:06.521Z,12.50
2023-01-31T18:32:35.303Z,11.17
2023-01-31T18:35:05.059Z,12.50
2023-01-31T18:37:32.957Z,11.70
2023-01-31T18:40:00.853Z,11.20
2023-01-31T18:42:28.978Z,11.37
2023-01-31T18:44:56.635Z,10.87
2023-01-31T18:47:24.823Z,11.13
2023-01-31T18:49:52.756Z,10.33
2023-01-31T18:52:23.676Z,11.73
2023-01-31T18:54:52.658Z,10.30
2023-01-31T18:57:20.495Z,9.90
2023-01-31T18:59:48.201Z,9.57
2023-01-31T19:02:15.981Z,9.23
2023-01-31T19:04:44.154Z,8.10
2023-01-31T19:07:12.165Z,9.27
2023-01-31T19:09:42.715Z,9.00
2023-01-31T19:12:11.048Z,8.27
2023-01-31T19:14:38.744Z,8.50
2023-01-31T19:17:06.676Z,8.67
2023-01-31T19:19:34.944Z,8.10
2023-01-31T19:22:03.102Z,7.53
2023-01-31T19:24:31.359Z,6.80
2023-01-31T19:27:00.715Z,6.70
2023-01-31T19:29:28.990Z,6.57
2023-01-31T19:31:57.092Z,6.30
2023-01-31T19:34:27.097Z,4.40
2023-01-31T19:36:55.139Z,1.93
2023-01-31T19:39:22.776Z,2.43
2023-01-31T19:41:50.573Z,2.00
2023-01-31T19:44:20.647Z,1.53
2023-01-31T19:46:52.014Z,2.10
2023-01-31T19:49:20.136Z,1.90
2023-01-31T19:51:47.856Z,1.70
2023-01-31T19:54:17.389Z,2.37
2023-01-31T19:56:45.206Z,1.70
2023-01-31T19:59:13.048Z,2.33
2023-01-31T20:01:42.183Z,2.37
2023-01-31T20:04:11.041Z,2.30
2023-01-31T20:06:38.739Z,2.40
2023-01-31T20:09:07.607Z,2.63
2023-01-31T20:11:36.658Z,2.83
2023-01-31T20:14:06.412Z,2.90
2023-01-31T20:16:34.432Z,2.53
2023-01-31T20:19:03.808Z,3.03
2023-01-31T20:21:31.869Z,4.00
2023-01-31T20:23:59.918Z,3.00
2023-01-31T20:26:29.647Z,3.73
2023-01-31T20:28:57.951Z,3.37
2023-01-31T20:31:25.736Z,3.23
2023-01-31T20:33:54.650Z,3.97
2023-01-31T20:36:24.139Z,3.23
2023-01-31T20:38:52.337Z,3.60
2023-01-31T20:41:21.278Z,3.60
2023-01-31T20:43:50.331Z,3.87
2023-01-31T20:46:19.398Z,3.27
2023-01-31T20:48:47.327Z,2.63
2023-01-31T20:51:15.019Z,3.80
2023-01-31T20:53:44.127Z,3.90
2023-01-31T20:56:11.917Z,2.97
2023-01-31T20:58:40.422Z,4.10
2023-01-31T21:01:12.169Z,3.83
2023-01-31T21:03:40.222Z,3.97
2023-01-31T21:06:08.545Z,4.70
2023-01-31T21:08:36.788Z,4.67
2023-01-31T21:11:07.586Z,3.93
2023-01-31T21:13:35.491Z,4.07
2023-01-31T21:16:04.406Z,4.07
2023-01-31T21:18:33.310Z,4.17
2023-01-31T21:21:03.865Z,4.10
2023-01-31T21:23:31.754Z,4.27
2023-01-31T21:26:01.700Z,3.40
2023-01-31T21:28:31.588Z,3.43
2023-01-31T21:30:59.992Z,3.07
2023-01-31T21:33:29.067Z,3.17
2023-01-31T21:36:00.839Z,3.20
2023-01-31T21:38:29.330Z,3.20
2023-01-31T21:41:15.309Z,3.23
2023-01-31T21:43:45.696Z,5.07
2023-01-31T21:46:15.698Z,3.10
2023-01-31T21:48:44.777Z,2.57
2023-01-31T21:51:14.069Z,3.50
2023-01-31T21:53:42.578Z,2.93
2023-01-31T21:56:11.953Z,2.67
2023-01-31T21:58:40.160Z,2.53
2023-01-31T22:01:11.503Z,2.33
2023-01-31T22:03:42.520Z,1.70
2023-01-31T22:06:12.226Z,2.60
2023-01-31T22:08:40.310Z,1.80
2023-01-31T22:11:10.404Z,1.30
2023-01-31T22:13:38.823Z,2.67
2023-01-31T22:16:08.651Z,1.97
2023-01-31T22:18:38.875Z,1.80
2023-01-31T22:21:08.022Z,2.03
2023-01-31T22:23:36.407Z,2.70
2023-01-31T22:26:05.295Z,2.30
2023-01-31T22:28:33.155Z,2.47
2023-01-31T22:31:02.081Z,2.70
2023-01-31T22:33:32.455Z,3.90
2023-01-31T22:36:01.699Z,2.50
2023-01-31T22:38:29.688Z,3.70
2023-01-31T22:40:57.811Z,2.80
2023-01-31T22:43:25.523Z,5.10
2023-01-31T22:45:54.069Z,3.73
2023-01-31T22:48:25.068Z,4.47
2023-01-31T22:50:56.676Z,3.47
2023-01-31T22:53:26.119Z,4.00
2023-01-31T22:55:54.627Z,5.40
2023-01-31T22:58:22.966Z,4.50
2023-01-31T23:00:50.672Z,4.70
2023-01-31T23:03:18.488Z,4.00
2023-01-31T23:05:46.224Z,4.37
2023-01-31T23:08:14.442Z,4.63
2023-01-31T23:10:44.078Z,5.17
2023-01-31T23:13:12.375Z,4.07
2023-01-31T23:15:41.007Z,4.43
2023-01-31T23:18:08.878Z,5.40
2023-01-31T23:20:36.577Z,5.00
2023-01-31T23:23:04.310Z,4.33
2023-01-31T23:25:31.985Z,4.87
2023-01-31T23:28:02.329Z,4.63
2023-01-31T23:30:30.301Z,4.33
2023-01-31T23:32:57.953Z,4.47
2023-01-31T23:35:25.855Z,5.47
2023-01-31T23:37:53.971Z,3.77
2023-01-31T23:40:22.288Z,3.93
2023-01-31T23:42:50.240Z,4.23
2023-01-31T23:45:19.792Z,5.23
2023-01-31T23:47:47.778Z,4.83
2023-01-31T23:50:15.907Z,5.10
2023-01-31T23:52:43.568Z,4.70
2023-01-31T23:55:11.393Z,5.10
2023-01-31T23:57:39.089Z,5.60
